Portada
METAR-TAF:

METAR-TAF

Aeropuertos :

Aeropuerto Internacional de Posadas Libertador General José de San Martín

Posadas, Argentina

latitud: 27-22S, longitud: 055-58W, altitud: 131 m

Observación

El informe se hizo hace 47 minutos, a las 22:00 UTC
Viento 2 kt del este
Temperatura 25°C
Humedad 54%
Presión 1014 hPa
Visibilidad 10 km o más
sin nubes por debajo de 1500 m y sin presencia de cumulonimbus.

METAR: SARP 092200Z 09002KT CAVOK 25/15 Q1014

Hora: 19:47 (22:47 UTC)

Pronóstico

El informe se hizo hace 5 horas y 47 minutos, a las 17:00 UTC
Pronóstico válido del 09 a las 18 UTC al 10 a las 18 UTC
Viento 10 kt del norte-noreste
Visibilidad 10 km o más
sin nubes por debajo de 1500 m y sin presencia de cumulonimbus.

TAF: SARP 091700Z 0918/1018 02010KT CAVOK TX31/0919Z TN16/1010Z

Observaciones y pronósticos meteorológicos de más de 4000 aeropuertos (mensajes METAR y TAF).

Los puntos amarillos y rojos representan las estaciones disponibles.

Ponga el ratón en el punto deseado para ver el nombre de la estación.

Haga clic para ver las observaciones y los pronósticos meteorológicos.

Para cambiar el mapa : haga clic en los botones verdes con una cruz de color negro para hacer un zoom, en el botón verde con un guión para alejar o en las flechas verdes para mapas adyacentes.


METAR-TAF: